createdAt,value
2018-12-12T00:00:12.737Z,14.00
2018-12-12T00:02:39.045Z,14.20
2018-12-12T00:05:05.550Z,12.75
2018-12-12T00:07:31.935Z,12.80
2018-12-12T00:09:58.216Z,12.75
2018-12-12T00:12:24.476Z,11.30
2018-12-12T00:14:50.755Z,12.58
2018-12-12T00:17:17.044Z,12.78
2018-12-12T00:19:43.282Z,13.88
2018-12-12T00:22:09.526Z,12.88
2018-12-12T00:24:35.791Z,14.50
2018-12-12T00:27:02.202Z,14.38
2018-12-12T00:29:28.444Z,13.28
2018-12-12T00:31:54.707Z,14.55
2018-12-12T00:34:20.988Z,13.85
2018-12-12T00:36:47.248Z,14.47
2018-12-12T00:39:13.494Z,14.55
2018-12-12T00:41:39.790Z,13.35
2018-12-12T00:44:06.180Z,14.38
2018-12-12T00:46:32.902Z,13.88
2018-12-12T00:48:59.164Z,13.75
2018-12-12T00:51:25.426Z,13.62
2018-12-12T00:53:51.703Z,13.28
2018-12-12T00:56:17.951Z,13.45
2018-12-12T00:58:44.244Z,14.30
2018-12-12T01:01:10.495Z,13.40
2018-12-12T01:03:36.763Z,14.58
2018-12-12T01:06:03.041Z,13.90
2018-12-12T01:08:29.278Z,13.58
2018-12-12T01:13:55.068Z,12.98
2018-12-12T01:16:21.332Z,14.75
2018-12-12T01:18:47.582Z,13.75
2018-12-12T01:21:13.827Z,13.55
2018-12-12T01:23:40.107Z,14.07
2018-12-12T01:26:06.398Z,13.22
2018-12-12T01:28:32.650Z,14.58
2018-12-12T01:30:58.887Z,14.55
2018-12-12T01:33:25.151Z,14.80
2018-12-12T01:35:51.414Z,17.02
2018-12-12T01:38:17.691Z,15.15
2018-12-12T01:40:43.963Z,15.28
2018-12-12T01:43:10.263Z,15.53
2018-12-12T01:45:36.485Z,17.00
2018-12-12T01:48:02.739Z,16.50
2018-12-12T01:50:29.044Z,16.70
2018-12-12T01:52:55.290Z,17.82
2018-12-12T01:55:21.535Z,16.52
2018-12-12T01:57:47.806Z,16.60
2018-12-12T02:00:14.053Z,16.10
2018-12-12T02:02:40.299Z,16.97
2018-12-12T02:05:06.584Z,15.83
2018-12-12T02:07:32.853Z,16.60
2018-12-12T02:09:59.103Z,15.93
2018-12-12T02:12:25.364Z,17.25
2018-12-12T02:14:51.666Z,16.95
2018-12-12T02:17:17.917Z,17.82
2018-12-12T02:19:44.174Z,18.48
2018-12-12T02:22:10.446Z,18.98
2018-12-12T02:24:36.680Z,16.80
2018-12-12T02:27:02.973Z,16.05
2018-12-12T02:29:29.232Z,17.10
2018-12-12T02:31:55.488Z,17.95
2018-12-12T02:34:21.750Z,17.35
2018-12-12T02:36:48.020Z,17.20
2018-12-12T02:39:14.315Z,18.23
2018-12-12T02:41:40.580Z,16.05
2018-12-12T02:44:06.827Z,16.45
2018-12-12T02:46:33.135Z,16.25
2018-12-12T02:48:59.441Z,15.72
2018-12-12T02:51:25.709Z,16.02
2018-12-12T02:53:51.987Z,16.65
2018-12-12T02:56:18.247Z,16.35
2018-12-12T02:58:44.527Z,17.82
2018-12-12T03:01:10.834Z,14.78
2018-12-12T03:03:37.084Z,15.48
2018-12-12T03:06:03.356Z,16.17
2018-12-12T03:08:29.610Z,15.60
2018-12-12T03:10:55.889Z,16.10
2018-12-12T03:13:22.186Z,16.50
2018-12-12T03:15:48.440Z,15.32
2018-12-12T03:18:14.713Z,15.43
2018-12-12T03:20:40.973Z,15.88
2018-12-12T03:23:07.223Z,14.28
2018-12-12T03:25:33.548Z,14.28
2018-12-12T03:27:59.812Z,15.20
2018-12-12T03:30:26.083Z,15.95
2018-12-12T03:32:52.426Z,14.20
2018-12-12T03:35:18.672Z,15.50
2018-12-12T03:37:44.988Z,15.60
2018-12-12T03:40:11.698Z,17.40
2018-12-12T03:42:38.390Z,14.60
2018-12-12T03:45:04.895Z,15.28
2018-12-12T03:47:31.155Z,15.58
2018-12-12T03:49:57.410Z,16.20
2018-12-12T03:52:23.692Z,15.65
2018-12-12T03:54:49.924Z,15.13
2018-12-12T03:57:16.188Z,15.78
2018-12-12T03:59:42.467Z,15.20
2018-12-12T04:02:08.716Z,14.03
2018-12-12T04:04:35.010Z,16.15
2018-12-12T04:07:01.265Z,14.95
2018-12-12T04:09:27.561Z,15.53
2018-12-12T04:11:53.812Z,14.78
2018-12-12T04:14:20.071Z,15.90
2018-12-12T04:16:46.374Z,15.85
2018-12-12T04:19:12.769Z,15.78
2018-12-12T04:21:39.031Z,16.67
2018-12-12T04:24:05.294Z,17.48
2018-12-12T04:26:31.598Z,15.50
2018-12-12T04:28:57.900Z,17.00
2018-12-12T04:31:24.184Z,15.85
2018-12-12T04:33:50.489Z,16.73
2018-12-12T04:36:16.739Z,16.45
2018-12-12T04:38:43.020Z,16.50
2018-12-12T04:41:09.299Z,16.48
2018-12-12T04:43:35.546Z,16.32
2018-12-12T04:46:01.783Z,16.85
2018-12-12T04:48:28.179Z,18.15
2018-12-12T04:50:54.470Z,17.70
2018-12-12T04:53:20.776Z,17.85
2018-12-12T04:55:47.075Z,16.30
2018-12-12T04:58:13.367Z,17.40
2018-12-12T05:00:39.680Z,17.98
2018-12-12T05:03:06.208Z,16.77
2018-12-12T05:05:32.484Z,18.17
2018-12-12T05:07:58.806Z,17.07
2018-12-12T05:10:25.100Z,18.07
2018-12-12T05:12:51.379Z,17.17
2018-12-12T05:15:17.688Z,18.30
2018-12-12T05:17:43.944Z,17.90
2018-12-12T05:20:10.238Z,18.87
2018-12-12T05:22:36.557Z,17.67
2018-12-12T05:25:03.524Z,18.45
2018-12-12T05:27:29.842Z,19.30
2018-12-12T05:29:56.106Z,16.97
2018-12-12T05:32:22.386Z,17.60
2018-12-12T05:34:48.631Z,16.87
2018-12-12T05:37:14.997Z,18.55
2018-12-12T05:39:41.296Z,16.80
2018-12-12T05:42:07.573Z,16.48
2018-12-12T05:44:33.858Z,17.37
2018-12-12T05:47:00.122Z,17.35
2018-12-12T05:49:26.422Z,17.48
2018-12-12T05:51:52.719Z,17.52
2018-12-12T05:54:18.995Z,15.80
2018-12-12T05:56:45.258Z,18.32
2018-12-12T05:59:11.531Z,16.65
2018-12-12T06:01:37.874Z,17.48
2018-12-12T06:04:04.178Z,16.73
2018-12-12T06:06:30.487Z,18.02
2018-12-12T06:08:56.778Z,16.00
2018-12-12T06:11:23.100Z,17.30
2018-12-12T06:13:49.387Z,15.80
2018-12-12T06:16:15.684Z,16.67
2018-12-12T06:18:41.938Z,17.87
2018-12-12T06:21:08.227Z,15.20
2018-12-12T06:23:34.509Z,16.32
2018-12-12T06:26:00.773Z,16.12
2018-12-12T06:28:27.051Z,15.05
2018-12-12T06:30:53.352Z,16.25
2018-12-12T06:33:19.610Z,16.30
2018-12-12T06:35:45.874Z,16.80
2018-12-12T06:38:12.156Z,16.48
2018-12-12T06:40:38.544Z,17.48
2018-12-12T06:43:04.815Z,16.97
2018-12-12T06:45:31.080Z,17.52
2018-12-12T06:47:57.336Z,17.45
2018-12-12T06:50:23.605Z,17.65
2018-12-12T06:52:49.893Z,16.97
2018-12-12T06:55:16.176Z,16.25
2018-12-12T06:57:42.455Z,15.38
2018-12-12T07:00:08.902Z,18.37
2018-12-12T07:02:35.199Z,16.85
2018-12-12T07:05:01.499Z,16.48
2018-12-12T07:07:27.994Z,18.35
2018-12-12T07:09:54.267Z,17.10
2018-12-12T07:12:20.539Z,17.17
2018-12-12T07:14:46.803Z,16.52
2018-12-12T07:17:13.101Z,17.40
2018-12-12T07:19:39.354Z,16.57
2018-12-12T07:22:05.658Z,16.27
2018-12-12T07:24:31.919Z,19.12
2018-12-12T07:26:58.186Z,17.95
2018-12-12T07:29:24.475Z,15.78
2018-12-12T07:31:50.751Z,15.30
2018-12-12T07:34:17.219Z,16.45
2018-12-12T07:36:43.467Z,16.97
2018-12-12T07:39:09.789Z,15.48
2018-12-12T07:41:36.263Z,17.95
2018-12-12T07:44:02.802Z,18.20
2018-12-12T07:46:29.476Z,17.80
2018-12-12T07:48:55.777Z,22.95
2018-12-12T07:51:22.035Z,18.15
2018-12-12T07:53:48.296Z,22.05
2018-12-12T07:56:14.558Z,23.70
2018-12-12T07:58:40.871Z,18.17
2018-12-12T08:01:07.117Z,19.27
2018-12-12T08:03:33.409Z,33.73
2018-12-12T08:05:59.679Z,23.02
2018-12-12T08:08:25.935Z,17.90
2018-12-12T08:10:52.259Z,17.80
2018-12-12T08:13:18.525Z,16.75
2018-12-12T08:15:44.817Z,15.83
2018-12-12T08:18:11.103Z,19.77
2018-12-12T08:20:37.375Z,18.85
2018-12-12T08:23:03.851Z,16.48
2018-12-12T08:25:30.386Z,16.35
2018-12-12T08:27:56.662Z,16.05
2018-12-12T08:30:22.944Z,17.73
2018-12-12T08:32:49.187Z,16.80
2018-12-12T08:35:15.482Z,16.52
2018-12-12T08:37:41.745Z,14.73
2018-12-12T08:40:08.199Z,16.07
2018-12-12T08:42:34.611Z,14.45
2018-12-12T08:45:00.941Z,14.07
2018-12-12T08:47:27.217Z,14.70
2018-12-12T08:49:53.459Z,15.15
2018-12-12T08:52:19.716Z,14.80
2018-12-12T08:54:45.967Z,14.00
2018-12-12T08:57:12.579Z,14.90
2018-12-12T08:59:38.874Z,18.02
2018-12-12T09:02:05.536Z,17.50
2018-12-12T09:04:31.947Z,14.30
2018-12-12T09:06:58.224Z,16.52
2018-12-12T09:09:24.498Z,15.08
2018-12-12T09:11:50.734Z,15.25
2018-12-12T09:14:16.982Z,13.78
2018-12-12T09:16:43.279Z,12.93
2018-12-12T09:19:09.567Z,15.43
2018-12-12T09:21:35.929Z,13.28
2018-12-12T09:24:02.265Z,15.88
2018-12-12T09:26:28.553Z,15.55
2018-12-12T09:28:54.803Z,12.98
2018-12-12T09:31:21.058Z,15.35
2018-12-12T09:33:47.339Z,14.87
2018-12-12T09:36:13.589Z,12.50
2018-12-12T09:38:39.861Z,12.30
2018-12-12T09:41:06.148Z,8.38
2018-12-12T09:43:32.884Z,6.97
2018-12-12T09:45:59.230Z,7.40
2018-12-12T09:48:25.501Z,7.65
2018-12-12T09:50:51.788Z,7.10
2018-12-12T09:53:18.086Z,7.62
2018-12-12T09:55:44.477Z,10.03
2018-12-12T09:58:10.757Z,10.50
2018-12-12T10:00:37.043Z,8.63
2018-12-12T10:03:03.307Z,7.17
2018-12-12T10:05:29.846Z,7.75
2018-12-12T10:07:56.109Z,7.80
2018-12-12T10:10:22.351Z,6.53
2018-12-12T10:12:48.612Z,9.58
2018-12-12T10:15:14.927Z,8.40
2018-12-12T10:17:41.211Z,11.35
2018-12-12T10:20:07.482Z,8.10
2018-12-12T10:22:33.752Z,5.85
2018-12-12T10:25:00.017Z,6.10
2018-12-12T10:27:26.288Z,5.58
2018-12-12T10:29:52.603Z,6.03
2018-12-12T10:32:18.923Z,10.63
2018-12-12T10:34:45.251Z,5.20
2018-12-12T10:37:11.521Z,3.85
2018-12-12T10:39:37.775Z,4.95
2018-12-12T10:42:04.112Z,5.30
2018-12-12T10:44:30.339Z,5.10
2018-12-12T10:46:56.587Z,4.70
2018-12-12T10:49:22.867Z,4.80
2018-12-12T10:51:49.153Z,5.17
2018-12-12T10:54:15.434Z,4.87
2018-12-12T10:56:41.668Z,4.47
2018-12-12T10:59:07.991Z,4.70
2018-12-12T11:01:40.359Z,14.50
2018-12-12T11:04:06.595Z,6.10
2018-12-12T11:06:32.834Z,4.30
2018-12-12T11:08:59.145Z,4.50
2018-12-12T11:11:25.431Z,3.62
2018-12-12T11:13:51.691Z,3.77
2018-12-12T11:16:17.959Z,3.33
2018-12-12T11:18:44.251Z,4.05
2018-12-12T11:21:10.487Z,4.35
2018-12-12T11:23:36.771Z,4.53
2018-12-12T11:26:03.046Z,4.15
2018-12-12T11:28:29.293Z,4.22
2018-12-12T11:30:55.620Z,4.30
2018-12-12T11:33:21.875Z,4.60
2018-12-12T11:35:48.116Z,4.33
2018-12-12T11:38:14.411Z,4.50
2018-12-12T11:40:40.690Z,4.30
2018-12-12T11:43:06.958Z,4.90
2018-12-12T11:45:33.240Z,10.15
2018-12-12T11:47:59.613Z,7.92
2018-12-12T11:50:25.858Z,8.58
2018-12-12T11:52:52.155Z,7.10
2018-12-12T11:55:18.451Z,5.65
2018-12-12T11:57:44.754Z,10.35
2018-12-12T12:00:11.206Z,11.75
2018-12-12T12:02:37.494Z,8.68
2018-12-12T12:05:04.791Z,5.87
2018-12-12T12:07:31.052Z,5.40
2018-12-12T12:09:57.334Z,4.90
2018-12-12T12:12:23.573Z,5.33
2018-12-12T12:14:49.839Z,4.08
2018-12-12T12:17:16.103Z,7.00
2018-12-12T12:19:42.373Z,4.30
2018-12-12T12:22:08.656Z,3.87
2018-12-12T12:24:34.913Z,8.28
2018-12-12T12:27:01.175Z,6.83
2018-12-12T12:29:27.442Z,6.55
2018-12-12T12:31:53.691Z,4.90
2018-12-12T12:34:19.971Z,5.00
2018-12-12T12:36:46.665Z,6.70
2018-12-12T12:39:12.917Z,5.35
2018-12-12T12:41:39.216Z,5.60
2018-12-12T12:44:05.509Z,5.20
2018-12-12T12:46:31.772Z,5.15
2018-12-12T12:48:58.059Z,4.90
2018-12-12T12:51:24.299Z,6.15
2018-12-12T12:53:50.563Z,5.25
2018-12-12T12:56:16.850Z,5.28
2018-12-12T12:58:43.110Z,4.87
2018-12-12T13:01:09.384Z,4.10
2018-12-12T13:03:35.639Z,6.03
2018-12-12T13:06:01.921Z,5.55
2018-12-12T13:08:28.220Z,5.67
2018-12-12T13:10:54.460Z,5.22
2018-12-12T13:13:21.178Z,6.08
2018-12-12T13:15:48.083Z,4.95
2018-12-12T13:18:14.504Z,4.95
2018-12-12T13:20:40.800Z,4.75
2018-12-12T13:23:07.062Z,4.92
2018-12-12T13:25:33.326Z,7.60
2018-12-12T13:27:59.571Z,5.50
2018-12-12T13:30:25.826Z,5.40
2018-12-12T13:32:52.087Z,5.30
2018-12-12T13:35:18.343Z,4.55
2018-12-12T13:37:44.616Z,6.83
2018-12-12T13:40:11.006Z,5.37
2018-12-12T13:42:37.429Z,5.22
2018-12-12T13:45:04.418Z,4.08
2018-12-12T13:47:30.711Z,3.20
2018-12-12T13:49:56.990Z,3.87
2018-12-12T13:52:23.258Z,2.95
2018-12-12T13:54:49.535Z,3.87
2018-12-12T13:57:15.811Z,3.98
2018-12-12T13:59:42.088Z,4.78
2018-12-12T14:02:08.366Z,4.30
2018-12-12T14:04:34.631Z,4.37
2018-12-12T14:07:01.096Z,4.85
2018-12-12T14:09:27.354Z,6.00
2018-12-12T14:11:53.700Z,5.05
2018-12-12T14:14:19.980Z,6.37
2018-12-12T14:16:46.247Z,8.08
2018-12-12T14:19:12.517Z,10.25
2018-12-12T14:21:38.875Z,8.80
2018-12-12T14:24:05.165Z,6.72
2018-12-12T14:26:31.510Z,5.42
2018-12-12T14:28:57.825Z,4.65
2018-12-12T14:31:24.109Z,4.90
2018-12-12T14:33:50.388Z,6.70
2018-12-12T14:36:16.748Z,7.15
2018-12-12T14:38:43.017Z,5.22
2018-12-12T14:41:09.289Z,4.17
2018-12-12T14:43:35.572Z,3.40
2018-12-12T14:46:01.870Z,4.12
2018-12-12T14:48:30.377Z,3.80
2018-12-12T14:50:56.502Z,4.30
2018-12-12T14:53:22.861Z,4.15
2018-12-12T14:55:49.149Z,3.20
2018-12-12T14:58:15.455Z,5.72
2018-12-12T15:00:41.695Z,4.10
2018-12-12T15:03:08.089Z,5.30
2018-12-12T15:05:34.479Z,4.95
2018-12-12T15:08:00.736Z,4.17
2018-12-12T15:10:27.073Z,5.72
2018-12-12T15:12:53.430Z,5.40
2018-12-12T15:15:19.707Z,7.95
2018-12-12T15:17:46.026Z,5.22
2018-12-12T15:20:12.443Z,5.95
2018-12-12T15:22:38.786Z,5.75
2018-12-12T15:25:05.212Z,4.05
2018-12-12T15:27:31.511Z,5.00
2018-12-12T15:29:57.895Z,3.75
2018-12-12T15:32:24.769Z,4.80
2018-12-12T15:34:51.062Z,4.10
2018-12-12T15:37:17.446Z,4.50
2018-12-12T15:39:44.879Z,3.90
2018-12-12T15:42:13.624Z,3.95
2018-12-12T15:44:42.284Z,3.85
2018-12-12T15:47:09.914Z,4.87
2018-12-12T15:49:36.216Z,5.62
2018-12-12T15:52:02.655Z,5.90
2018-12-12T15:54:28.987Z,9.18
2018-12-12T15:56:55.259Z,8.25
2018-12-12T15:59:21.600Z,9.05
2018-12-12T16:01:47.911Z,11.10
2018-12-12T16:04:14.214Z,11.15
2018-12-12T16:06:40.492Z,9.33
2018-12-12T16:09:07.071Z,11.48
2018-12-12T16:11:33.339Z,11.48
2018-12-12T16:13:59.603Z,10.72
2018-12-12T16:16:25.900Z,9.63
2018-12-12T16:18:52.207Z,8.35
2018-12-12T16:21:18.514Z,9.03
2018-12-12T16:23:44.786Z,8.98
2018-12-12T16:26:11.104Z,8.45
2018-12-12T16:28:37.403Z,7.85
2018-12-12T16:31:03.763Z,5.20
2018-12-12T16:33:30.056Z,5.47
2018-12-12T16:35:56.367Z,5.20
2018-12-12T16:38:22.682Z,4.72
2018-12-12T16:40:48.931Z,5.10
2018-12-12T16:43:15.322Z,5.25
2018-12-12T16:45:41.598Z,5.17
2018-12-12T16:48:07.918Z,5.37
2018-12-12T16:50:34.216Z,5.28
2018-12-12T16:53:00.511Z,6.17
2018-12-12T16:55:26.792Z,5.37
2018-12-12T16:57:53.125Z,6.40
2018-12-12T17:00:19.383Z,4.90
2018-12-12T17:02:45.659Z,4.85
2018-12-12T17:05:11.974Z,5.87
2018-12-12T17:07:38.212Z,4.70
2018-12-12T17:10:04.972Z,4.75
2018-12-12T17:12:31.241Z,7.17
2018-12-12T17:14:57.494Z,5.10
2018-12-12T17:17:23.783Z,5.15
2018-12-12T17:19:50.189Z,14.83
2018-12-12T17:22:16.469Z,6.12
2018-12-12T17:24:42.718Z,6.00
2018-12-12T17:27:09.024Z,5.20
2018-12-12T17:29:35.282Z,5.80
2018-12-12T17:32:01.589Z,5.72
2018-12-12T17:34:27.910Z,5.37
2018-12-12T17:36:54.244Z,5.08
2018-12-12T17:39:20.526Z,5.17
2018-12-12T17:41:46.827Z,5.28
2018-12-12T17:44:13.446Z,6.10
2018-12-12T17:46:40.721Z,6.28
2018-12-12T17:49:06.989Z,7.45
2018-12-12T17:51:33.256Z,6.22
2018-12-12T17:53:59.663Z,6.42
2018-12-12T17:56:26.092Z,6.85
2018-12-12T17:58:52.715Z,6.35
2018-12-12T18:01:19.011Z,8.20
2018-12-12T18:03:45.359Z,6.55
2018-12-12T18:06:11.789Z,7.33
2018-12-12T18:08:38.048Z,7.60
2018-12-12T18:11:04.421Z,7.53
2018-12-12T18:13:30.822Z,8.48
2018-12-12T18:15:57.104Z,9.10
2018-12-12T18:18:23.390Z,9.98
2018-12-12T18:20:49.706Z,22.22
2018-12-12T18:23:16.033Z,15.40
2018-12-12T18:25:42.326Z,11.53
2018-12-12T18:28:08.722Z,13.60
2018-12-12T18:30:35.075Z,15.85
2018-12-12T18:33:01.374Z,13.75
2018-12-12T18:35:27.640Z,12.10
2018-12-12T18:37:53.934Z,7.78
2018-12-12T18:40:20.279Z,8.05
2018-12-12T18:42:46.600Z,7.60
2018-12-12T18:45:13.009Z,7.20
2018-12-12T18:47:39.564Z,6.83
2018-12-12T18:50:07.164Z,6.80
2018-12-12T18:52:33.451Z,6.95
2018-12-12T18:54:59.727Z,6.58
2018-12-12T18:57:26.141Z,6.72
2018-12-12T18:59:52.546Z,7.75
2018-12-12T19:02:18.863Z,7.55
2018-12-12T19:04:45.504Z,7.10
2018-12-12T19:07:11.836Z,7.70
2018-12-12T19:09:38.204Z,7.42
2018-12-12T19:12:04.466Z,11.25
2018-12-12T19:14:30.758Z,12.25
2018-12-12T19:16:57.213Z,8.00
2018-12-12T19:19:24.369Z,9.10
2018-12-12T19:21:50.780Z,8.78
2018-12-12T19:24:17.377Z,7.28
2018-12-12T19:26:43.937Z,7.33
2018-12-12T19:29:10.237Z,8.13
2018-12-12T19:31:36.643Z,8.60
2018-12-12T19:34:03.200Z,6.70
2018-12-12T19:36:29.477Z,6.70
2018-12-12T19:38:55.809Z,6.05
2018-12-12T19:41:22.135Z,6.97
2018-12-12T19:43:48.521Z,6.67
2018-12-12T19:46:14.801Z,6.60
2018-12-12T19:48:41.226Z,6.05
2018-12-12T19:51:07.559Z,5.80
2018-12-12T19:53:34.107Z,5.10
2018-12-12T19:56:00.483Z,4.83
2018-12-12T19:58:26.812Z,5.00
2018-12-12T20:00:53.144Z,4.55
2018-12-12T20:03:19.675Z,4.45
2018-12-12T20:05:45.989Z,4.60
2018-12-12T20:08:12.362Z,4.50
2018-12-12T20:10:38.675Z,4.85
2018-12-12T20:13:05.224Z,3.80
2018-12-12T20:15:37.778Z,4.55
2018-12-12T20:18:04.079Z,4.37
2018-12-12T20:20:31.156Z,4.45
2018-12-12T20:22:57.718Z,4.28
2018-12-12T20:25:23.957Z,4.53
2018-12-12T20:27:50.292Z,4.75
2018-12-12T20:30:16.552Z,4.28
2018-12-12T20:32:42.808Z,4.10
2018-12-12T20:35:09.152Z,4.40
2018-12-12T20:37:35.398Z,4.55
2018-12-12T20:40:02.886Z,4.80
2018-12-12T20:42:29.174Z,4.42
2018-12-12T20:44:56.753Z,4.75
2018-12-12T20:47:23.077Z,4.80
2018-12-12T20:49:49.384Z,4.87
2018-12-12T20:52:15.790Z,5.55
2018-12-12T20:54:46.649Z,5.30
2018-12-12T20:57:13.162Z,5.37
2018-12-12T20:59:39.452Z,5.97
2018-12-12T21:02:05.779Z,5.75
2018-12-12T21:04:32.115Z,5.60
2018-12-12T21:06:58.375Z,6.47
2018-12-12T21:09:24.664Z,6.58
2018-12-12T21:11:51.022Z,6.30
2018-12-12T21:14:17.336Z,5.72
2018-12-12T21:16:43.638Z,4.65
2018-12-12T21:19:10.049Z,5.00
2018-12-12T21:21:36.380Z,5.33
2018-12-12T21:24:02.839Z,5.50
2018-12-12T21:26:29.150Z,4.85
2018-12-12T21:28:55.479Z,4.83
2018-12-12T21:31:21.796Z,4.70
2018-12-12T21:33:48.113Z,4.72
2018-12-12T21:36:14.403Z,4.83
2018-12-12T21:38:40.668Z,5.17
2018-12-12T21:41:06.999Z,5.05
2018-12-12T21:43:33.300Z,5.05
2018-12-12T21:45:59.563Z,5.15
2018-12-12T21:48:25.867Z,4.72
2018-12-12T21:50:52.123Z,5.10
2018-12-12T21:53:18.480Z,5.03
2018-12-12T21:55:44.758Z,4.70
2018-12-12T21:58:11.069Z,4.80
2018-12-12T22:00:37.365Z,4.50
2018-12-12T22:03:03.674Z,5.00
2018-12-12T22:05:29.999Z,5.80
2018-12-12T22:07:56.274Z,5.10
2018-12-12T22:10:22.558Z,5.10
2018-12-12T22:12:48.865Z,5.42
2018-12-12T22:15:15.167Z,6.00
2018-12-12T22:17:41.451Z,5.10
2018-12-12T22:20:07.756Z,6.25
2018-12-12T22:22:34.038Z,5.45
2018-12-12T22:25:00.319Z,6.17
2018-12-12T22:27:26.642Z,5.95
2018-12-12T22:29:52.943Z,5.35
2018-12-12T22:32:19.252Z,6.15
2018-12-12T22:34:45.677Z,5.97
2018-12-12T22:37:11.982Z,5.15
2018-12-12T22:39:38.270Z,6.15
2018-12-12T22:42:04.539Z,5.87
2018-12-12T22:44:30.815Z,6.37
2018-12-12T22:46:57.124Z,5.60
2018-12-12T22:49:23.403Z,6.35
2018-12-12T22:51:49.854Z,7.42
2018-12-12T22:54:16.168Z,6.28
2018-12-12T22:56:42.472Z,6.80
2018-12-12T22:59:08.760Z,6.45
2018-12-12T23:01:35.206Z,7.00
2018-12-12T23:04:01.555Z,6.65
2018-12-12T23:06:27.852Z,6.75
2018-12-12T23:08:54.181Z,7.17
2018-12-12T23:11:20.424Z,7.55
2018-12-12T23:13:46.723Z,6.78
2018-12-12T23:16:13.006Z,8.15
2018-12-12T23:18:39.312Z,7.03
2018-12-12T23:21:05.582Z,7.37
2018-12-12T23:23:31.892Z,6.70
2018-12-12T23:25:58.174Z,6.22
2018-12-12T23:28:24.437Z,7.03
2018-12-12T23:30:50.739Z,6.22
2018-12-12T23:33:16.993Z,6.80
2018-12-12T23:35:43.268Z,6.80
2018-12-12T23:38:09.552Z,7.03
2018-12-12T23:40:35.840Z,8.13
2018-12-12T23:43:02.162Z,7.03
2018-12-12T23:45:28.492Z,6.33
2018-12-12T23:47:54.787Z,6.83
2018-12-12T23:50:21.042Z,7.47
2018-12-12T23:52:47.366Z,7.90
2018-12-12T23:55:13.627Z,7.72
2018-12-12T23:57:39.915Z,7.90
